Blairsville, Georgia
Current Conditions -  °F | °C
As of 11:55 AM on Friday 28 Nov 2014 (Local Time) from KRHP Reporting Station
Clear Clear  
Wind Chill: 38°   Ceiling: Unl
Heat Index: 38°   Visibility: 10mi
Dew Point: 17°   Wind: 0mph
Humidity: 42%   Direction: NA
Pressure: 30.32"   Gusts: NA
Location:  34.88°N, 83.95°W
Report Text: KRHP 281655Z AUTO 00000KT 10SM CLR 04/M08 A3032 RMK AO2 T00351083
Loading
Personal Weather Stations






























Interactive Weather Map New forecast layout! Learn more

10-Day Weather Forecast

Advertisements
Track Severe Weather on mobile